Time;durP1;ratioP1;P1;durP2;ratioP2;P2;SDS_P1;SDS_P2;PMS_P1;PMS_P2;Temp;Humidity;BMP_temperature;BMP_pressure;BME280_temperature;BME280_humidity;BME280_pressure;Samples;Min_cycle;Max_cycle;Signal;HPM_P1;HPM_P2
2021/07/26 00:00:38;;;;;;;20.50;8.27;;;;;;;16.45;77.19;99088.84;4949584;28;20035;-71
2021/07/26 00:03:03;;;;;;;18.90;8.30;;;;;;;16.43;77.21;99085.63;4946060;28;20040;-72
2021/07/26 00:05:29;;;;;;;16.00;8.40;;;;;;;16.46;77.16;99087.72;4949996;28;20035;-72
2021/07/26 00:07:55;;;;;;;15.63;8.38;;;;;;;16.45;77.38;99079.88;4940704;28;20134;-72
2021/07/26 00:10:21;;;;;;;29.50;8.63;;;;;;;16.45;77.38;99085.28;4923183;28;20043;-72
2021/07/26 00:12:46;;;;;;;19.88;8.93;;;;;;;16.46;77.19;99086.91;4941776;28;20207;-71
2021/07/26 00:15:12;;;;;;;20.67;8.10;;;;;;;16.47;77.64;99091.25;4937703;28;20454;-71
2021/07/26 00:17:37;;;;;;;18.60;8.43;;;;;;;16.51;77.09;99078.66;4956984;28;20043;-71
2021/07/26 00:20:04;;;;;;;15.18;8.63;;;;;;;16.55;77.31;99079.69;4935737;29;20032;-72
2021/07/26 00:22:30;;;;;;;17.98;8.15;;;;;;;16.54;77.11;99081.63;4949106;28;20039;-71
2021/07/26 00:24:56;;;;;;;18.25;8.57;;;;;;;16.57;76.94;99079.41;4948077;28;20047;-72
2021/07/26 00:27:21;;;;;;;17.40;8.05;;;;;;;16.58;76.73;99075.56;4945537;28;20034;-72
2021/07/26 00:29:47;;;;;;;17.20;8.80;;;;;;;16.60;77.02;99076.88;4946056;28;20375;-71
2021/07/26 00:32:12;;;;;;;19.33;8.00;;;;;;;16.64;77.16;99075.16;4935824;28;20087;-71
2021/07/26 00:34:37;;;;;;;17.95;8.77;;;;;;;16.65;76.72;99074.06;4941845;28;20035;-71
2021/07/26 00:37:03;;;;;;;22.85;8.85;;;;;;;16.64;77.03;99077.09;4945397;29;20036;-71
2021/07/26 00:39:31;;;;;;;16.90;8.75;;;;;;;16.63;76.99;99070.06;4949329;29;20042;-71
2021/07/26 00:41:57;;;;;;;10.45;7.80;;;;;;;16.62;76.94;99073.88;4944019;28;20039;-72
2021/07/26 00:44:25;;;;;;;35.08;8.48;;;;;;;16.61;77.01;99070.34;4953883;28;20496;-71
2021/07/26 00:46:51;;;;;;;17.35;8.05;;;;;;;16.59;76.92;99060.88;4949425;28;20062;-71
2021/07/26 00:49:18;;;;;;;19.13;8.65;;;;;;;16.58;76.93;99065.50;4942613;29;20135;-71
2021/07/26 00:51:52;;;;;;;18.75;8.65;;;;;;;16.60;76.90;99067.94;4948511;28;20114;-71
2021/07/26 00:54:22;;;;;;;18.40;8.13;;;;;;;16.58;76.97;99075.56;4953418;28;20027;-71
2021/07/26 00:56:49;;;;;;;18.13;9.05;;;;;;;16.59;76.80;99066.31;4947190;28;20401;-71
2021/07/26 00:59:15;;;;;;;18.55;8.20;;;;;;;16.60;76.60;99074.16;4953239;28;20477;-72
2021/07/26 01:01:41;;;;;;;16.25;7.95;;;;;;;16.59;76.87;99071.75;4948044;28;20549;-72
2021/07/26 01:04:07;;;;;;;15.55;7.63;;;;;;;16.55;77.07;99074.25;4951407;28;20031;-73
2021/07/26 01:06:33;;;;;;;14.40;8.93;;;;;;;16.52;77.23;99074.84;4952688;28;20031;-71
2021/07/26 01:08:59;;;;;;;22.33;7.90;;;;;;;16.52;77.63;99069.41;4949909;28;20055;-71
2021/07/26 01:11:24;;;;;;;21.02;8.70;;;;;;;16.50;77.67;99068.91;4947214;29;20454;-72
2021/07/26 01:13:50;;;;;;;19.45;8.32;;;;;;;16.50;77.69;99069.72;4946918;28;20039;-72
2021/07/26 01:16:16;;;;;;;14.77;8.55;;;;;;;16.48;77.63;99071.13;4942583;29;20493;-72
2021/07/26 01:18:42;;;;;;;11.98;7.93;;;;;;;16.49;77.61;99067.28;4933129;29;20028;-72
2021/07/26 01:21:13;;;;;;;14.65;8.55;;;;;;;16.46;77.79;99068.72;4601405;28;10000640;-71
2021/07/26 01:23:42;;;;;;;17.15;8.32;;;;;;;16.46;77.33;99074.16;4950709;28;20112;-72
2021/07/26 01:26:11;;;;;;;16.45;8.27;;;;;;;16.46;77.75;99076.88;4929767;28;20063;-72
2021/07/26 01:28:39;;;;;;;16.27;7.97;;;;;;;16.46;77.80;99074.16;4949526;29;20094;-71
2021/07/26 01:31:06;;;;;;;17.25;8.48;;;;;;;16.44;77.79;99075.53;4945600;28;20062;-72
2021/07/26 01:33:33;;;;;;;18.95;8.65;;;;;;;16.44;77.58;99080.97;4951355;28;20070;-72
2021/07/26 01:35:59;;;;;;;14.30;7.80;;;;;;;16.43;77.40;99072.03;4948330;28;20480;-72
2021/07/26 01:38:25;;;;;;;17.80;8.35;;;;;;;16.43;77.66;99065.75;4946433;28;20026;-72
2021/07/26 01:40:53;;;;;;;18.67;8.32;;;;;;;16.43;77.58;99068.47;4954169;28;20039;-72
2021/07/26 01:46:38;;;;;;;19.95;8.07;;;;;;;16.44;77.26;99073.63;5443567;23;20093;-72
2021/07/26 01:49:35;;;;;;;13.82;7.97;;;;;;;16.43;77.04;99076.63;4988616;28;20042;-73
2021/07/26 01:52:04;;;;;;;22.38;7.97;;;;;;;16.41;77.00;99076.13;4991546;28;20473;-73
2021/07/26 01:54:30;;;;;;;23.83;8.30;;;;;;;16.41;77.23;99074.22;4984106;28;20058;-73
2021/07/26 01:56:56;;;;;;;17.20;7.88;;;;;;;16.45;77.08;99080.69;4987653;28;20059;-73
2021/07/26 01:59:22;;;;;;;17.30;7.65;;;;;;;16.42;77.23;99069.59;4985388;28;20069;-73
2021/07/26 02:01:47;;;;;;;17.90;8.07;;;;;;;16.41;77.19;99073.41;4994988;28;20038;-73
2021/07/26 02:04:14;;;;;;;10.95;7.50;;;;;;;16.39;77.30;99071.00;4990589;28;20042;-74
2021/07/26 02:06:40;;;;;;;17.92;7.97;;;;;;;16.41;76.80;99078.84;4986041;28;20093;-74
2021/07/26 02:09:05;;;;;;;15.95;7.55;;;;;;;16.38;77.26;99069.41;4998115;28;20445;-74
2021/07/26 02:11:31;;;;;;;15.15;7.97;;;;;;;16.38;77.07;99072.91;4996341;28;20049;-74
2021/07/26 02:13:57;;;;;;;18.00;7.53;;;;;;;16.38;76.98;99078.34;4990842;28;20041;-73
2021/07/26 02:16:23;;;;;;;15.27;7.53;;;;;;;16.38;77.01;99077.53;4991539;28;20037;-74
2021/07/26 02:18:49;;;;;;;19.08;7.97;;;;;;;16.39;77.47;99073.72;4988868;28;20030;-73
2021/07/26 02:21:14;;;;;;;15.13;7.65;;;;;;;16.38;77.28;99075.63;4997795;28;20088;-73
2021/07/26 02:23:40;;;;;;;18.45;7.72;;;;;;;16.37;77.29;99082.16;4993766;28;20033;-74
2021/07/26 02:26:06;;;;;;;14.70;7.22;;;;;;;16.38;77.00;99081.06;4996268;28;20376;-73
2021/07/26 02:28:33;;;;;;;19.25;7.43;;;;;;;16.38;77.33;99080.25;4981773;28;20043;-74
2021/07/26 02:30:58;;;;;;;18.77;7.20;;;;;;;16.39;77.55;99082.66;4981767;28;20084;-73
2021/07/26 02:33:24;;;;;;;16.27;7.75;;;;;;;16.38;77.27;99078.34;4996527;28;20457;-73
2021/07/26 02:35:50;;;;;;;15.13;7.80;;;;;;;16.39;77.33;99069.06;4988024;28;20555;-73
2021/07/26 02:38:16;;;;;;;26.42;8.02;;;;;;;16.41;77.37;99076.13;5002748;28;20026;-72
2021/07/26 02:40:41;;;;;;;14.82;7.28;;;;;;;16.40;77.22;99069.91;4979228;28;20452;-72
2021/07/26 02:43:07;;;;;;;16.63;8.38;;;;;;;16.39;77.38;99079.16;4989012;28;20419;-74
2021/07/26 02:45:32;;;;;;;13.88;7.72;;;;;;;16.40;77.51;99075.34;4992842;28;20108;-73
2021/07/26 02:47:58;;;;;;;17.00;7.57;;;;;;;16.40;77.42;99075.34;5021198;28;20533;-73
2021/07/26 02:50:26;;;;;;;18.05;8.07;;;;;;;16.39;77.59;99077.22;5013089;28;20399;-73
2021/07/26 02:52:53;;;;;;;17.40;8.48;;;;;;;16.41;77.53;99076.94;5017276;28;20418;-73
2021/07/26 02:55:18;;;;;;;16.95;8.43;;;;;;;16.38;77.62;99072.91;4659645;28;10000080;-73
2021/07/26 02:57:45;;;;;;;20.00;8.38;;;;;;;16.38;77.46;99077.53;5009382;28;20037;-73
2021/07/26 03:00:11;;;;;;;16.90;7.97;;;;;;;16.40;77.58;99067.19;5011856;28;20530;-73
2021/07/26 03:02:37;;;;;;;14.82;7.72;;;;;;;16.42;77.24;99075.84;5014126;28;20475;-73
2021/07/26 03:05:04;;;;;;;12.27;7.60;;;;;;;16.42;77.20;99075.03;5009184;28;20548;-73
2021/07/26 03:07:32;;;;;;;19.70;7.90;;;;;;;16.41;77.01;99073.41;5010847;28;20510;-73
2021/07/26 03:09:57;;;;;;;17.33;7.93;;;;;;;16.41;77.46;99079.66;5023917;28;20032;-73
2021/07/26 03:12:23;;;;;;;15.52;7.85;;;;;;;16.44;76.98;99072.81;4994439;28;20029;-73
2021/07/26 03:14:48;;;;;;;16.48;7.72;;;;;;;16.44;77.17;99064.66;5023147;28;20037;-73
2021/07/26 03:17:14;;;;;;;10.77;7.00;;;;;;;16.43;77.02;99069.31;5019671;28;20041;-73
2021/07/26 03:19:39;;;;;;;18.83;7.60;;;;;;;16.44;76.99;99075.53;5015212;28;20034;-73
2021/07/26 03:23:00;;;;;;;13.45;7.32;;;;;;;16.41;77.34;99059.81;5017992;28;20048;-73
2021/07/26 03:25:27;;;;;;;14.35;8.35;;;;;;;16.48;77.21;99068.41;5022059;28;20030;-73
2021/07/26 03:27:53;;;;;;;20.33;7.93;;;;;;;16.38;77.38;99067.47;5013203;28;20447;-73
2021/07/26 03:30:19;;;;;;;21.77;7.93;;;;;;;16.35;77.52;99061.84;5019003;28;21595;-73
2021/07/26 03:32:45;;;;;;;17.20;7.68;;;;;;;16.35;77.37;99064.56;5020048;28;20036;-72
2021/07/26 03:35:12;;;;;;;14.20;7.95;;;;;;;16.30;77.77;99061.91;5014211;28;20041;-72
2021/07/26 03:37:38;;;;;;;18.60;7.72;;;;;;;16.27;77.84;99062.53;5002809;28;20038;-73
2021/07/26 03:40:04;;;;;;;10.40;7.28;;;;;;;16.26;78.09;99058.19;5008374;28;20037;-72
2021/07/26 03:42:38;;;;;;;15.73;7.75;;;;;;;16.29;78.18;99057.59;5013125;28;20129;-73
2021/07/26 03:45:06;;;;;;;19.88;8.38;;;;;;;16.24;78.08;99042.16;4993425;28;20034;-72
2021/07/26 03:47:32;;;;;;;16.50;8.13;;;;;;;16.23;78.00;99044.09;4977727;28;20129;-73
2021/07/26 03:49:58;;;;;;;17.45;8.10;;;;;;;16.23;78.32;99035.94;4991886;28;20460;-73
2021/07/26 03:52:23;;;;;;;12.68;7.53;;;;;;;16.22;78.06;99042.47;4991347;28;20029;-72
2021/07/26 03:54:49;;;;;;;21.40;8.73;;;;;;;16.19;78.20;99043.06;4992440;28;20037;-72
2021/07/26 03:57:14;;;;;;;17.58;8.20;;;;;;;16.20;78.09;99039.25;4992502;28;20392;-72
2021/07/26 03:59:40;;;;;;;15.10;8.40;;;;;;;16.23;78.03;99040.56;4997928;28;20030;-73
2021/07/26 04:02:05;;;;;;;18.05;8.45;;;;;;;16.22;78.07;99041.66;4995824;28;20039;-73
2021/07/26 04:04:31;;;;;;;16.23;7.93;;;;;;;16.16;78.39;99037.41;4998083;28;20126;-72
2021/07/26 04:07:23;;;;;;;13.30;8.40;;;;;;;16.16;78.57;99035.53;5002466;28;20076;-73
2021/07/26 04:09:45;;;;;;;17.02;8.65;;;;;;;16.11;78.76;99046.47;5003992;28;20582;-73
2021/07/26 04:12:20;;;;;;;22.88;9.00;;;;;;;16.10;79.30;99039.44;5004329;28;20438;-73
2021/07/26 04:14:46;;;;;;;22.13;8.95;;;;;;;16.04;79.47;99041.41;5000306;28;20043;-72
2021/07/26 04:17:11;;;;;;;15.98;9.25;;;;;;;16.02;79.49;99032.75;4988957;28;20040;-72
2021/07/26 04:19:38;;;;;;;21.55;9.25;;;;;;;16.02;79.86;99040.09;4993017;28;20034;-73
2021/07/26 04:22:04;;;;;;;17.50;9.18;;;;;;;16.02;79.87;99043.59;4974581;28;20068;-73
2021/07/26 04:24:30;;;;;;;27.20;9.63;;;;;;;16.00;80.26;99043.09;4999989;28;20050;-73
2021/07/26 04:26:55;;;;;;;20.85;9.05;;;;;;;16.03;80.28;99039.78;4998584;28;20026;-73
2021/07/26 04:29:21;;;;;;;19.40;9.70;;;;;;;16.01;80.52;99035.78;4986493;28;20065;-73
2021/07/26 04:31:48;;;;;;;17.23;9.02;;;;;;;16.01;80.73;99024.91;5003371;28;20065;-73
2021/07/26 04:34:14;;;;;;;20.45;9.70;;;;;;;16.03;80.78;99028.13;5008459;28;20141;-72
2021/07/26 04:36:40;;;;;;;17.00;9.75;;;;;;;16.04;81.04;99027.81;5006816;28;20045;-72
2021/07/26 04:39:05;;;;;;;21.58;9.85;;;;;;;16.09;80.49;99025.03;4990862;28;20038;-73
2021/07/26 04:41:33;;;;;;;19.95;10.25;;;;;;;16.12;80.97;99017.38;4993827;28;20582;-73
2021/07/26 04:43:59;;;;;;;23.48;9.98;;;;;;;16.16;80.72;99023.84;4990803;28;20407;-73
2021/07/26 04:46:25;;;;;;;32.40;10.43;;;;;;;16.17;80.51;99020.00;4999211;28;20041;-72
2021/07/26 04:48:50;;;;;;;21.45;9.93;;;;;;;16.20;80.83;99016.69;5010633;28;20045;-73
2021/07/26 04:51:16;;;;;;;21.95;10.43;;;;;;;16.24;80.76;99023.16;5002255;28;20034;-73
2021/07/26 04:53:42;;;;;;;21.00;10.10;;;;;;;16.29;80.37;99030.41;5008679;28;20498;-73
2021/07/26 04:56:08;;;;;;;23.20;10.40;;;;;;;16.31;80.48;99023.56;5012194;28;20114;-72
2021/07/26 04:58:34;;;;;;;19.55;10.57;;;;;;;16.33;80.35;99024.06;5007232;28;20048;-73
2021/07/26 05:01:00;;;;;;;23.98;9.75;;;;;;;16.35;80.08;99019.16;5018172;28;20485;-72
2021/07/26 05:03:26;;;;;;;19.98;10.40;;;;;;;16.44;79.85;99023.91;5015959;28;20490;-73
2021/07/26 05:05:51;;;;;;;19.55;10.32;;;;;;;16.45;80.14;99023.59;5003268;28;20046;-72
2021/07/26 05:08:17;;;;;;;21.38;11.50;;;;;;;16.49;80.06;99027.34;5012934;28;20033;-72
2021/07/26 05:10:47;;;;;;;18.70;10.70;;;;;;;16.50;79.61;99033.56;5008831;28;20371;-72
2021/07/26 05:13:13;;;;;;;30.30;12.00;;;;;;;16.45;80.12;99030.94;4989281;28;20497;-72
2021/07/26 05:15:39;;;;;;;24.17;11.60;;;;;;;16.45;80.06;99037.19;5014334;28;20507;-72
2021/07/26 05:18:04;;;;;;;21.75;12.48;;;;;;;16.51;80.12;99024.31;5006683;28;20176;-71
2021/07/26 05:20:32;;;;;;;23.23;12.25;;;;;;;16.50;80.18;99022.69;5007938;28;20130;-68
2021/07/26 05:22:58;;;;;;;22.58;12.25;;;;;;;16.49;80.56;99021.91;5000092;28;20026;-68
2021/07/26 05:25:25;;;;;;;21.65;12.02;;;;;;;16.50;80.21;99009.94;5012670;28;20026;-68
2021/07/26 05:27:51;;;;;;;24.92;11.45;;;;;;;16.55;80.22;99017.16;4954800;28;20407;-71
2021/07/26 05:30:16;;;;;;;30.48;12.60;;;;;;;16.54;80.29;99018.28;5002818;28;20045;-71
2021/07/26 05:32:41;;;;;;;25.70;12.88;;;;;;;16.59;80.21;99023.63;5017866;28;20044;-70
2021/07/26 05:35:08;;;;;;;21.33;12.13;;;;;;;16.65;79.96;99022.41;4913738;28;20058;-70
2021/07/26 05:37:33;;;;;;;25.20;12.65;;;;;;;16.66;80.24;99025.94;4867488;28;20404;-71
2021/07/26 05:40:00;;;;;;;25.70;13.55;;;;;;;16.72;79.74;99026.66;4947058;28;20035;-72
2021/07/26 05:42:26;;;;;;;23.60;12.52;;;;;;;16.71;79.75;99025.84;4972957;28;20403;-72
2021/07/26 05:44:53;;;;;;;23.25;12.13;;;;;;;16.64;80.48;99022.72;4967184;28;20038;-70
2021/07/26 05:47:18;;;;;;;30.10;12.65;;;;;;;16.72;79.74;99026.66;4971925;28;20054;-71
2021/07/26 05:49:44;;;;;;;25.10;13.85;;;;;;;16.76;79.52;99022.22;4971129;28;20027;-71
2021/07/26 05:52:09;;;;;;;25.08;12.57;;;;;;;16.88;79.37;99032.59;4971544;28;20526;-71
2021/07/26 05:54:35;;;;;;;24.85;13.05;;;;;;;16.90;79.30;99025.78;4971034;28;20081;-71
2021/07/26 05:57:09;;;;;;;27.55;13.15;;;;;;;16.92;79.12;99020.84;4970665;28;20043;-70
2021/07/26 05:59:35;;;;;;;24.35;12.55;;;;;;;17.01;78.75;99020.16;4970597;28;20026;-69
2021/07/26 06:02:01;;;;;;;32.28;11.85;;;;;;;17.15;78.44;99031.00;4964413;28;20142;-71
2021/07/26 06:04:26;;;;;;;23.35;12.82;;;;;;;17.21;77.99;99027.06;4968966;28;20113;-71
2021/07/26 06:06:54;;;;;;;29.50;13.05;;;;;;;17.32;77.41;99033.91;4957865;28;20037;-71
2021/07/26 06:09:23;;;;;;;23.25;13.25;;;;;;;17.46;76.70;99039.34;4971732;28;20062;-71
2021/07/26 06:11:50;;;;;;;30.45;13.57;;;;;;;17.60;76.18;99039.28;4968437;28;20484;-71
2021/07/26 06:14:16;;;;;;;25.17;12.98;;;;;;;17.61;75.96;99037.38;4943633;28;20030;-69
2021/07/26 06:16:43;;;;;;;24.63;13.07;;;;;;;17.68;76.00;99038.59;4964905;28;20183;-71
2021/07/26 06:19:10;;;;;;;20.55;12.35;;;;;;;17.73;75.25;99039.59;4968426;28;20600;-70
2021/07/26 06:21:55;;;;;;;20.00;12.38;;;;;;;17.79;75.43;99050.03;4970502;28;20039;-71
2021/07/26 06:24:21;;;;;;;20.25;11.77;;;;;;;17.96;74.70;99037.66;4973413;28;20069;-70
2021/07/26 06:26:48;;;;;;;21.60;12.43;;;;;;;18.12;73.99;99038.94;4984526;28;20033;-70
2021/07/26 06:29:14;;;;;;;31.92;12.30;;;;;;;18.22;73.95;99045.25;4980784;28;20050;-71
2021/07/26 06:31:42;;;;;;;23.40;12.30;;;;;;;18.24;73.52;99043.00;4950271;28;20043;-71
2021/07/26 06:34:09;;;;;;;21.80;12.13;;;;;;;18.27;73.67;99043.22;4973347;28;20026;-69
2021/07/26 06:36:36;;;;;;;18.77;11.70;;;;;;;18.31;73.25;99043.38;4983827;28;20038;-69
2021/07/26 06:39:03;;;;;;;19.20;10.38;;;;;;;18.56;72.39;99038.41;4975874;28;20042;-72
2021/07/26 06:41:29;;;;;;;18.65;10.38;;;;;;;18.62;72.19;99044.50;4969518;28;20133;-69
2021/07/26 06:43:55;;;;;;;18.38;10.57;;;;;;;18.78;71.47;99039.47;4976030;28;20474;-68
2021/07/26 06:46:20;;;;;;;22.13;10.13;;;;;;;18.96;70.03;99041.13;4973591;28;20142;-69
2021/07/26 06:48:46;;;;;;;24.30;9.40;;;;;;;19.00;69.87;99044.06;4975733;28;20039;-69
2021/07/26 06:51:12;;;;;;;23.08;11.30;;;;;;;19.10;68.34;99042.97;4983633;28;20114;-69
2021/07/26 06:53:38;;;;;;;16.77;10.40;;;;;;;19.17;68.00;99043.31;4980615;28;20141;-69
2021/07/26 06:56:06;;;;;;;24.05;10.88;;;;;;;18.97;68.91;99042.78;4985369;28;20161;-69
2021/07/26 06:58:31;;;;;;;20.45;11.45;;;;;;;18.99;69.09;99043.25;4982939;28;20965;-69
2021/07/26 07:01:15;;;;;;;20.48;10.40;;;;;;;19.19;68.42;99041.06;4983405;28;20030;-69
2021/07/26 07:03:44;;;;;;;27.25;10.80;;;;;;;19.09;68.92;99044.88;4980200;28;20047;-69
2021/07/26 07:06:12;;;;;;;18.65;10.10;;;;;;;19.14;68.83;99047.47;4972687;28;20023;-69
2021/07/26 07:08:38;;;;;;;23.80;10.48;;;;;;;19.27;68.46;99053.09;4977081;28;20093;-68
2021/07/26 07:11:10;;;;;;;15.35;9.52;;;;;;;19.53;67.52;99057.84;4977922;28;20049;-69
2021/07/26 07:13:37;;;;;;;22.38;10.73;;;;;;;19.53;67.61;99058.63;4974366;28;20027;-68
2021/07/26 07:16:10;;;;;;;19.00;10.52;;;;;;;19.77;66.55;99057.34;4968659;28;20118;-69
2021/07/26 07:18:36;;;;;;;17.67;10.05;;;;;;;19.73;66.32;99057.22;4979270;28;20053;-69
2021/07/26 07:21:02;;;;;;;18.58;9.90;;;;;;;19.72;67.17;99052.88;4970854;28;20491;-69
2021/07/26 07:23:28;;;;;;;20.25;10.82;;;;;;;19.80;66.95;99055.94;4979429;28;20122;-69
2021/07/26 07:25:54;;;;;;;26.60;10.70;;;;;;;19.84;66.00;99059.63;4982313;28;20132;-70
2021/07/26 07:28:20;;;;;;;20.67;10.55;;;;;;;19.91;65.30;99065.44;4990320;28;20030;-70
2021/07/26 07:30:46;;;;;;;18.17;9.75;;;;;;;20.15;64.25;99061.41;4979015;28;20034;-70
2021/07/26 07:33:11;;;;;;;16.55;9.48;;;;;;;20.41;63.09;99061.38;4980122;28;20061;-71
2021/07/26 07:35:37;;;;;;;17.45;9.10;;;;;;;20.86;60.48;99064.78;4978119;28;20728;-70
2021/07/26 07:38:02;;;;;;;16.38;9.57;;;;;;;20.60;61.65;99062.94;4978148;28;20479;-71
2021/07/26 07:40:28;;;;;;;21.05;8.25;;;;;;;20.52;61.77;99066.50;4986932;28;20034;-71
2021/07/26 07:42:53;;;;;;;14.70;8.15;;;;;;;20.62;62.00;99060.66;4983102;28;20035;-70
2021/07/26 07:45:19;;;;;;;15.13;8.25;;;;;;;20.29;62.38;99058.47;4985682;28;20107;-70
2021/07/26 07:47:45;;;;;;;12.93;8.20;;;;;;;20.39;62.48;99066.34;4979724;28;20047;-70
2021/07/26 07:50:14;;;;;;;14.15;7.88;;;;;;;20.69;62.14;99073.81;4980037;28;20038;-70
2021/07/26 07:52:40;;;;;;;15.90;7.80;;;;;;;20.33;62.33;99073.13;4977907;28;20039;-70
2021/07/26 07:55:07;;;;;;;21.35;7.93;;;;;;;20.72;61.42;99073.19;4978461;28;20034;-70
2021/07/26 07:57:36;;;;;;;14.15;8.30;;;;;;;20.95;60.04;99076.50;4985223;28;20054;-70
2021/07/26 08:00:06;;;;;;;14.95;8.05;;;;;;;20.81;61.04;99075.91;4967620;28;20488;-70
2021/07/26 08:02:32;;;;;;;12.88;7.40;;;;;;;20.76;61.21;99068.66;4975618;28;20089;-70
2021/07/26 08:04:58;;;;;;;14.02;7.53;;;;;;;20.73;60.49;99072.03;4970277;28;20648;-71
2021/07/26 08:07:23;;;;;;;11.95;7.63;;;;;;;20.61;61.14;99072.75;4975255;28;20531;-71
2021/07/26 08:09:49;;;;;;;14.38;7.30;;;;;;;20.74;60.65;99071.72;4967790;28;20070;-71
2021/07/26 08:12:15;;;;;;;12.85;7.55;;;;;;;20.94;61.49;99065.88;4975510;28;20039;-71
2021/07/26 08:14:41;;;;;;;12.15;6.93;;;;;;;21.30;60.11;99076.34;4978580;28;20034;-71
2021/07/26 08:17:06;;;;;;;15.10;7.25;;;;;;;21.61;58.89;99060.69;4975131;28;20045;-71
2021/07/26 08:19:32;;;;;;;17.30;6.97;;;;;;;21.71;58.25;99064.97;4968814;28;20093;-71
2021/07/26 08:21:57;;;;;;;7.03;5.30;;;;;;;22.06;54.44;99057.28;4971981;28;20070;-71
2021/07/26 08:24:23;;;;;;;7.65;5.05;;;;;;;22.15;54.26;99056.38;4979681;28;20026;-71
2021/07/26 08:26:48;;;;;;;13.57;5.28;;;;;;;22.18;51.49;99063.94;4965482;28;20307;-71
2021/07/26 08:29:13;;;;;;;10.70;5.03;;;;;;;22.21;51.75;99055.03;4947403;28;20559;-71
2021/07/26 08:31:39;;;;;;;8.25;4.60;;;;;;;22.02;52.10;99056.34;4610893;28;10000068;-71
2021/07/26 08:34:04;;;;;;;8.07;4.90;;;;;;;22.13;51.89;99053.19;4969307;28;20121;-71
2021/07/26 08:36:30;;;;;;;12.52;6.00;;;;;;;22.17;52.65;99054.94;4971140;28;20073;-71
2021/07/26 08:38:55;;;;;;;9.50;5.78;;;;;;;22.38;51.74;99057.59;4974168;28;20038;-71
2021/07/26 08:41:21;;;;;;;7.75;5.00;;;;;;;22.13;52.76;99053.19;4954778;28;20065;-70
2021/07/26 08:43:48;;;;;;;10.07;4.97;;;;;;;21.91;53.04;99044.19;4974992;28;20387;-70
2021/07/26 08:46:18;;;;;;;15.75;4.75;;;;;;;21.86;53.00;99056.13;4974207;28;20074;-70
2021/07/26 08:48:46;;;;;;;8.80;4.38;;;;;;;22.04;52.28;99050.50;4972440;28;20037;-70
2021/07/26 08:51:15;;;;;;;12.77;5.13;;;;;;;22.23;50.86;99061.81;4969553;28;20084;-67
2021/07/26 08:53:42;;;;;;;5.93;3.90;;;;;;;22.23;49.28;99044.53;4969104;28;20049;-70
2021/07/26 08:56:08;;;;;;;9.48;4.22;;;;;;;22.51;48.79;99053.00;4964297;28;20038;-71
2021/07/26 08:58:35;;;;;;;6.38;3.55;;;;;;;22.42;46.45;99048.69;4978219;28;20484;-70
2021/07/26 09:01:01;;;;;;;7.88;3.58;;;;;;;22.12;47.63;99048.84;4971898;28;20035;-70
2021/07/26 09:03:27;;;;;;;9.05;4.20;;;;;;;22.07;48.13;99055.31;4963776;28;20560;-70
2021/07/26 09:05:52;;;;;;;7.32;3.95;;;;;;;22.30;48.02;99050.25;4966722;28;20038;-71
2021/07/26 09:08:18;;;;;;;9.43;3.85;;;;;;;22.42;47.66;99046.75;4971031;28;20067;-71
2021/07/26 09:10:44;;;;;;;5.78;3.90;;;;;;;22.60;46.98;99047.38;4974965;28;20049;-71
2021/07/26 09:13:12;;;;;;;4.85;3.60;;;;;;;22.43;47.00;99047.56;4974653;28;20443;-72
2021/07/26 09:15:40;;;;;;;9.88;4.03;;;;;;;22.66;46.50;99043.28;4949564;28;20039;-71
2021/07/26 09:18:14;;;;;;;15.75;3.85;;;;;;;22.69;46.29;99044.56;4953853;28;20027;-71
2021/07/26 09:20:40;;;;;;;5.80;3.70;;;;;;;22.62;45.92;99041.56;4967959;28;20503;-71
2021/07/26 09:23:12;;;;;;;10.07;4.28;;;;;;;22.42;47.68;99038.53;4971475;28;20035;-71
2021/07/26 09:25:39;;;;;;;5.78;3.90;;;;;;;22.22;47.83;99040.19;4970396;28;20042;-71
2021/07/26 09:28:04;;;;;;;9.18;4.03;;;;;;;22.08;48.12;99048.69;4982364;28;20881;-71
2021/07/26 09:30:35;;;;;;;7.43;3.97;;;;;;;22.08;47.47;99044.03;4966746;28;21088;-71
2021/07/26 09:33:02;;;;;;;13.32;4.80;;;;;;;22.24;47.52;99046.13;4972940;28;20035;-71
2021/07/26 09:35:28;;;;;;;7.88;4.88;;;;;;;22.33;47.68;99046.84;4969650;28;20105;-72
2021/07/26 09:38:03;;;;;;;15.63;5.32;;;;;;;22.11;48.14;99044.50;4968521;28;20036;-72
2021/07/26 09:40:34;;;;;;;10.93;4.85;;;;;;;22.13;47.93;99037.53;4970292;28;20035;-71
2021/07/26 09:43:24;;;;;;;12.48;5.20;;;;;;;22.07;48.22;99034.19;4970123;28;20035;-71
2021/07/26 09:45:56;;;;;;;10.23;4.88;;;;;;;21.91;48.39;99035.97;4981696;28;20057;-71
2021/07/26 09:48:26;;;;;;;16.10;4.78;;;;;;;22.22;49.18;99038.25;4971221;28;20027;-71
2021/07/26 09:50:52;;;;;;;16.58;5.07;;;;;;;22.23;50.78;99039.03;4967520;28;20042;-71
2021/07/26 09:53:23;;;;;;;13.40;5.25;;;;;;;22.24;51.34;99032.41;4966804;28;20042;-71
2021/07/26 09:55:50;;;;;;;9.80;5.05;;;;;;;22.19;51.37;99033.44;4971376;28;20030;-71
2021/07/26 09:58:17;;;;;;;11.77;4.88;;;;;;;22.11;50.56;99036.25;4942352;28;20519;-72
2021/07/26 10:00:45;;;;;;;7.35;4.57;;;;;;;22.34;48.80;99029.25;4971332;28;20061;-71
2021/07/26 10:03:12;;;;;;;8.15;4.90;;;;;;;22.58;49.65;99030.47;4972143;28;20043;-71
2021/07/26 10:05:40;;;;;;;7.68;4.28;;;;;;;22.56;49.98;99029.22;4975896;28;20045;-71
2021/07/26 10:08:07;;;;;;;5.90;5.00;;;;;;;22.50;49.99;99032.19;4976610;28;20393;-72
2021/07/26 10:10:35;;;;;;;8.98;5.28;;;;;;;22.76;51.10;99024.75;4971173;28;20406;-73
2021/07/26 10:13:02;;;;;;;8.85;5.15;;;;;;;22.96;49.45;99025.81;4970334;28;20045;-72
2021/07/26 10:15:29;;;;;;;7.88;5.50;;;;;;;22.68;50.65;99026.47;4980871;28;20034;-73
2021/07/26 10:17:55;;;;;;;7.65;4.82;;;;;;;22.72;49.67;99029.34;4979687;28;20042;-72
2021/07/26 10:20:24;;;;;;;11.38;4.65;;;;;;;22.40;49.86;99031.78;4966113;28;20035;-72
2021/07/26 10:23:08;;;;;;;9.50;5.07;;;;;;;22.18;52.19;99031.84;4981094;28;20034;-72
2021/07/26 10:26:00;;;;;;;11.55;6.03;;;;;;;22.01;53.22;99032.81;4966753;28;20035;-73
2021/07/26 10:28:51;;;;;;;11.00;5.25;;;;;;;22.03;53.74;99046.16;4938446;28;20054;-73
2021/07/26 10:31:36;;;;;;;9.02;5.75;;;;;;;22.44;53.64;99039.00;4973985;28;20034;-73
2021/07/26 10:34:02;;;;;;;;;;;;;;;22.51;52.55;99044.75;4977041;28;20457;-73
2021/07/26 10:36:40;;;;;;;12.15;5.25;;;;;;;22.60;51.22;99030.13;4963807;28;20395;-73
2021/07/26 10:39:05;;;;;;;6.93;5.20;;;;;;;22.70;50.72;99024.19;4961658;28;20054;-74
2021/07/26 10:41:44;;;;;;;8.93;5.60;;;;;;;22.88;51.09;99024.75;4975228;28;20086;-73
2021/07/26 10:44:33;;;;;;;9.13;5.60;;;;;;;22.92;49.44;99022.13;4969947;28;20046;-74
2021/07/26 10:47:07;;;;;;;10.55;5.88;;;;;;;22.99;50.58;99019.63;4955424;28;20050;-74
2021/07/26 10:49:43;;;;;;;8.07;5.50;;;;;;;23.33;49.76;99014.03;4967264;28;20034;-72
2021/07/26 10:52:11;;;;;;;10.13;5.25;;;;;;;23.59;49.72;99012.81;4968451;28;20077;-70
2021/07/26 10:54:37;;;;;;;12.95;5.40;;;;;;;23.57;47.92;99007.66;4972581;28;20069;-71
2021/07/26 10:57:09;;;;;;;6.97;5.13;;;;;;;23.47;47.16;99013.63;4974127;28;20027;-70
2021/07/26 11:00:12;;;;;;;6.78;4.45;;;;;;;23.38;46.44;99013.78;4977985;28;20030;-71
2021/07/26 11:02:40;;;;;;;6.28;4.70;;;;;;;23.26;47.04;99002.81;4972182;28;20057;-70
2021/07/26 11:05:25;;;;;;;12.80;5.78;;;;;;;23.42;49.28;99014.69;4969695;28;20057;-70
2021/07/26 11:08:12;;;;;;;6.40;5.60;;;;;;;23.02;48.66;99009.91;4956581;28;20031;-70
2021/07/26 11:10:45;;;;;;;13.48;5.30;;;;;;;22.90;47.54;99005.22;4978057;28;20061;-70
2021/07/26 11:13:11;;;;;;;6.28;5.35;;;;;;;22.71;50.75;99001.09;4986149;28;20041;-71
2021/07/26 11:15:50;;;;;;;11.02;5.32;;;;;;;22.70;50.35;99009.66;4980718;28;20483;-70
2021/07/26 11:18:28;;;;;;;9.32;5.35;;;;;;;22.72;49.86;99012.88;4976098;28;20049;-71
2021/07/26 11:21:04;;;;;;;10.90;5.07;;;;;;;22.76;48.36;99016.53;4978140;28;20126;-71
2021/07/26 11:23:38;;;;;;;12.95;5.13;;;;;;;22.74;48.76;99016.06;4973034;28;20039;-70
2021/07/26 11:26:05;;;;;;;9.35;5.25;;;;;;;22.51;49.13;99000.84;4972048;28;20043;-70
2021/07/26 11:28:37;;;;;;;9.30;5.13;;;;;;;22.57;50.28;99001.41;4975278;28;20093;-72
2021/07/26 11:31:04;;;;;;;10.50;5.30;;;;;;;22.73;50.37;99007.03;4971958;28;20138;-71